.
WxDataArchive / Data Records for 2010-06-01
2010-05-31 June 2010 2010-06-02

Data Records for Tuesday, 01 June 2010

Time	Temp	Chill	HIndex	Humid	Dewpt	 Wind 	HiWind	WindDir	Rain 	Barom 
-----	----	-----	------	-----	-----	------	------	-------	-----	----- 
00:00	65.8	65.8	65.8	96	64.6	1	2	315	0.00	29.880 
00:05	65.6	65.6	65.6	96	64.4	1	3	315	0.00	29.880 
00:10	65.6	65.6	65.6	96	64.4	0	1	315	0.00	29.880 
00:15	65.8	65.8	65.8	96	64.6	0	3	315	0.00	29.878 
00:20	65.5	65.5	65.5	96	64.3	0	2	315	0.00	29.878 
00:25	65.5	65.5	65.5	96	64.3	0	2	315	0.00	29.878 
00:30	65.3	65.3	65.3	96	64.1	0	1	315	0.00	29.879 
00:35	65.2	65.2	65.2	96	64.0	0	3	315	0.00	29.879 
00:40	65.2	65.2	65.2	96	64.0	0	2	315	0.00	29.879 
00:45	65.2	65.2	65.2	96	64.0	0	2	315	0.00	29.885 
00:50	65.0	65.0	65.0	96	63.8	0	2	315	0.00	29.885 
00:55	65.0	65.0	65.0	96	63.8	1	3	315	0.00	29.885 
01:00	65.0	65.0	65.0	96	63.8	0	2	315	0.00	29.885 
01:05	65.0	65.0	65.0	96	63.8	0	1	315	0.00	29.885 
01:10	65.0	65.0	65.0	96	63.8	0	1	315	0.00	29.885 
01:15	64.8	64.8	64.8	96	63.6	0	1	315	0.00	29.886 
01:20	64.8	64.8	64.8	96	63.6	0	1	315	0.00	29.886 
01:25	64.8	64.8	64.8	96	63.6	0	1	315	0.00	29.886 
01:30	64.7	64.7	64.7	96	63.5	0	0	---	0.00	29.887 
01:35	64.7	64.7	64.7	96	63.5	0	1	315	0.00	29.887 
01:40	64.7	64.7	64.7	96	63.5	0	0	---	0.00	29.887 
01:45	64.7	64.7	64.7	96	63.5	0	1	315	0.00	29.884 
01:50	64.7	64.7	64.7	96	63.5	0	1	315	0.00	29.884 
01:55	64.8	64.8	64.8	96	63.6	0	1	315	0.00	29.884 
02:00	64.7	64.7	64.7	96	63.5	0	1	315	0.00	29.886 
02:05	64.7	64.7	64.7	96	63.5	0	1	315	0.00	29.886 
02:10	64.5	64.5	64.5	96	63.3	0	1	315	0.00	29.886 
02:15	64.5	64.5	64.5	96	63.3	0	0	---	0.00	29.884 
02:20	64.3	64.3	64.3	96	63.1	0	0	---	0.00	29.884 
02:25	64.3	64.3	64.3	96	63.1	0	1	315	0.00	29.884 
02:30	64.2	64.2	64.2	96	63.0	0	1	315	0.00	29.878 
02:35	64.2	64.2	64.2	96	63.0	0	2	315	0.00	29.878 
02:40	64.2	64.2	64.2	96	63.0	0	1	315	0.00	29.878 
02:45	64.3	64.3	64.3	96	63.1	0	1	315	0.00	29.876 
02:50	64.3	64.3	64.3	96	63.1	0	1	315	0.00	29.876 
02:55	64.3	64.3	64.3	96	63.1	0	3	315	0.00	29.876 
03:00	64.3	64.3	64.3	96	63.1	0	1	315	0.00	29.877 
03:05	64.3	64.3	64.3	96	63.1	0	1	315	0.00	29.877 
03:10	64.3	64.3	64.3	96	63.1	0	2	315	0.00	29.877 
03:15	64.3	64.3	64.3	96	63.1	0	1	315	0.00	29.883 
03:20	64.2	64.2	64.2	96	63.0	0	1	315	0.00	29.883 
03:25	64.0	64.0	64.0	96	62.8	0	0	---	0.00	29.883 
03:30	64.0	64.0	64.0	96	62.8	0	1	315	0.00	29.887 
03:35	64.2	64.2	64.2	96	63.0	0	1	315	0.00	29.887 
03:40	64.2	64.2	64.2	96	63.0	0	1	315	0.00	29.887 
03:45	64.2	64.2	64.2	96	63.0	0	2	315	0.00	29.887 
03:50	64.2	64.2	64.2	96	63.0	0	1	315	0.00	29.887 
03:55	64.0	64.0	64.0	96	62.8	0	1	315	0.00	29.887 
04:00	64.0	64.0	64.0	96	62.8	0	1	315	0.00	29.885 
04:05	64.2	64.2	64.2	96	63.0	0	1	315	0.00	29.885 
04:10	64.3	64.3	64.3	96	63.1	0	2	315	0.00	29.885 
04:15	64.5	64.5	64.5	96	63.3	0	2	315	0.00	29.887 
04:20	64.5	64.5	64.5	96	63.3	0	1	315	0.00	29.887 
04:25	64.5	64.5	64.5	96	63.3	1	4	292	0.00	29.887 
04:30	64.5	64.5	64.5	96	63.3	1	3	292	0.00	29.887 
04:35	64.5	64.5	64.5	96	63.3	0	2	292	0.00	29.887 
04:40	64.5	64.5	64.5	96	63.3	1	2	292	0.00	29.887 
04:45	64.7	64.7	64.7	96	63.5	0	2	292	0.00	29.893 
04:50	64.7	64.7	64.7	96	63.5	0	1	292	0.00	29.893 
04:55	64.7	64.7	64.7	96	63.5	1	3	292	0.00	29.893 
05:00	64.5	64.5	64.5	96	63.3	1	3	292	0.00	29.897 
05:05	64.7	64.7	64.7	96	63.5	1	3	292	0.00	29.897 
05:10	64.7	64.7	64.7	96	63.5	0	3	292	0.00	29.897 
05:15	64.5	64.5	64.5	95	63.0	0	2	292	0.00	29.902 
05:20	64.7	64.7	64.7	96	63.5	0	2	292	0.00	29.902 
05:25	64.7	64.7	64.7	95	63.2	0	2	292	0.00	29.902 
05:30	64.7	64.7	64.7	95	63.2	0	2	338	0.00	29.910 
05:35	64.7	64.7	64.7	95	63.2	0	1	338	0.00	29.910 
05:40	64.7	64.7	64.7	95	63.2	0	1	338	0.00	29.910 
05:45	64.7	64.7	64.7	95	63.2	1	3	315	0.00	29.915 
05:50	64.7	64.7	64.7	95	63.2	1	4	315	0.00	29.915 
05:55	64.7	64.7	64.7	95	63.2	0	1	315	0.00	29.915 
06:00	64.7	64.7	64.7	95	63.2	1	4	315	0.00	29.918 
06:05	64.7	64.7	64.7	94	62.9	0	2	315	0.00	29.918 
06:10	64.7	64.7	64.7	94	62.9	1	3	315	0.00	29.918 
06:15	64.7	64.7	64.7	94	62.9	0	3	270	0.00	29.927 
06:20	64.7	64.7	64.7	94	62.9	0	1	270	0.00	29.927 
06:25	64.7	64.7	64.7	94	62.9	0	2	270	0.00	29.927 
06:30	64.7	64.7	64.7	94	62.9	0	1	270	0.00	29.924 
06:35	64.7	64.7	64.7	94	62.9	0	1	270	0.00	29.924 
06:40	64.5	64.5	64.5	93	62.4	0	1	270	0.00	29.924 
06:45	64.5	64.5	64.5	93	62.4	0	3	270	0.00	29.928 
06:50	64.5	64.5	64.5	93	62.4	0	2	270	0.00	29.928 
06:55	64.5	64.5	64.5	93	62.4	1	3	270	0.00	29.928 
07:00	64.5	64.5	64.5	93	62.4	0	2	270	0.00	29.929 
07:05	64.5	64.5	64.5	93	62.4	0	1	270	0.00	29.929 
07:10	64.7	64.7	64.7	93	62.6	0	2	270	0.00	29.929 
07:15	64.8	64.8	64.8	93	62.7	0	1	270	0.00	29.933 
07:20	65.0	65.0	65.0	93	62.9	0	1	270	0.00	29.933 
07:25	65.2	65.2	65.2	93	63.1	0	2	270	0.00	29.933 
07:30	65.3	65.3	65.3	93	63.2	0	2	270	0.00	29.938 
07:35	65.3	65.3	65.3	92	62.9	0	2	270	0.00	29.938 
07:40	65.5	65.5	65.5	92	63.1	0	2	315	0.00	29.938 
07:45	65.5	65.5	65.5	92	63.1	1	3	315	0.00	29.937 
07:50	65.5	65.5	65.5	92	63.1	1	3	315	0.00	29.937 
07:55	65.5	65.5	65.5	92	63.1	1	2	315	0.00	29.937 
08:00	65.5	65.5	65.5	92	63.1	1	2	315	0.00	29.942 
08:05	65.6	65.6	65.6	92	63.2	1	3	315	0.00	29.942 
08:10	65.8	65.8	65.8	91	63.1	0	1	315	0.00	29.942 
08:15	66.1	66.1	66.1	91	63.4	0	2	315	0.00	29.941 
08:20	66.3	66.3	66.3	90	63.3	1	3	315	0.00	29.941 
08:25	66.4	66.4	66.4	90	63.4	0	2	315	0.00	29.941 
08:30	66.8	66.8	66.8	90	63.8	0	1	315	0.00	29.941 
08:35	67.3	67.3	67.3	89	63.9	0	2	315	0.00	29.941 
08:40	67.6	67.6	67.6	88	63.9	1	3	315	0.00	29.941 
08:45	67.8	67.8	67.8	87	63.8	1	3	315	0.00	29.946 
08:50	68.1	68.1	68.1	86	63.7	1	3	315	0.00	29.946 
08:55	68.3	68.3	68.3	85	63.6	1	4	315	0.00	29.946 
09:00	68.6	68.6	68.6	85	63.9	1	3	315	0.00	29.948 
09:05	68.6	68.6	68.6	84	63.6	1	2	315	0.00	29.948 
09:10	68.9	68.9	68.9	83	63.5	1	3	315	0.00	29.948 
09:15	69.3	69.3	69.3	84	64.2	1	4	315	0.00	29.953 
09:20	69.3	69.3	69.3	83	63.9	1	3	292	0.00	29.953 
09:25	69.1	69.1	69.1	83	63.7	1	3	292	0.00	29.953 
09:30	69.4	69.4	69.4	83	64.0	1	4	292	0.00	29.959 
09:35	69.8	69.8	69.8	82	64.0	1	4	292	0.00	29.959 
09:40	69.9	69.9	69.9	80	63.4	1	2	292	0.00	29.959 
09:45	70.4	70.4	70.4	81	64.3	0	3	292	0.00	29.955 
09:50	70.9	70.9	70.9	78	63.7	1	2	292	0.00	29.955 
09:55	71.1	71.1	71.1	77	63.5	1	2	292	0.00	29.955 
10:00	71.5	71.5	71.5	77	63.9	0	3	292	0.00	29.956 
10:05	71.3	71.3	71.3	74	62.6	2	3	315	0.00	29.956 
10:10	71.5	71.5	71.5	73	62.4	1	4	292	0.00	29.956 
10:15	71.8	71.8	71.8	71	61.9	0	2	292	0.00	29.956 
10:20	72.0	72.0	72.0	71	62.1	0	2	315	0.00	29.956 
10:25	72.0	72.0	72.0	69	61.3	0	3	315	0.00	29.956 
10:30	72.3	72.3	72.3	69	61.5	0	2	315	0.00	29.954 
10:35	72.7	72.7	72.7	63	59.4	0	2	315	0.00	29.954 
10:40	73.0	73.0	73.0	64	60.1	0	2	338	0.00	29.954 
10:45	73.3	73.3	73.3	64	60.4	0	3	338	0.00	29.953 
10:50	73.5	73.5	73.5	63	60.1	0	1	338	0.00	29.953 
10:55	73.7	73.7	73.7	60	58.9	0	2	338	0.00	29.953 
11:00	74.0	74.0	74.0	60	59.2	0	2	338	0.00	29.948 
11:05	74.4	74.4	74.4	58	58.6	0	2	338	0.00	29.948 
11:10	74.4	74.4	74.4	57	58.2	0	2	338	0.00	29.948 
11:15	74.9	74.9	74.9	62	61.0	0	4	315	0.00	29.945 
11:20	75.1	75.1	77.4	61	60.7	0	1	315	0.00	29.945 
11:25	75.3	75.3	77.6	59	60.0	0	1	315	0.00	29.945 
11:30	75.3	75.3	77.7	56	58.5	0	3	292	0.00	29.944 
11:35	75.4	75.4	77.7	58	59.6	0	2	315	0.00	29.944 
11:40	75.4	75.4	77.7	58	59.6	0	2	315	0.00	29.944 
11:45	75.8	75.8	77.9	57	59.5	0	2	315	0.00	29.946 
11:50	75.4	75.4	77.8	53	57.1	1	2	315	0.00	29.946 
11:55	75.6	75.6	77.8	56	58.8	0	2	315	0.00	29.946 
12:00	75.8	75.8	77.9	57	59.5	1	2	315	0.00	29.943 
12:05	76.0	76.0	78.1	53	57.6	0	2	315	0.00	29.943 
12:10	76.7	76.7	78.5	54	58.8	0	1	315	0.00	29.943 
12:15	76.8	76.8	78.5	53	58.4	1	4	292	0.00	29.947 
12:20	76.7	76.7	78.5	56	59.8	0	2	292	0.00	29.947 
12:25	77.2	77.2	78.9	55	59.8	0	2	292	0.00	29.947 
12:30	77.2	77.2	78.8	53	58.7	1	3	292	0.00	29.947 
12:35	77.4	77.4	79.0	55	59.9	0	2	292	0.00	29.947 
12:40	77.7	77.7	79.2	53	59.2	0	3	292	0.00	29.947 
12:45	78.3	78.3	79.6	53	59.7	0	2	292	0.00	29.939 
12:50	78.1	78.1	79.4	52	59.0	1	4	292	0.00	29.939 
12:55	78.5	78.5	79.8	54	60.4	0	1	292	0.00	29.939 
13:00	78.6	78.6	79.8	52	59.5	0	2	292	0.00	29.936 
13:05	78.6	78.6	79.5	48	57.2	1	3	338	0.00	29.936 
13:10	79.0	79.0	80.3	54	60.9	0	1	338	0.00	29.936 
13:15	79.4	79.4	80.4	51	59.7	0	2	338	0.00	29.934 
13:20	79.2	79.2	80.1	50	58.9	0	1	338	0.00	29.934 
13:25	79.2	79.2	80.3	52	60.0	0	1	338	0.00	29.934 
13:30	79.2	79.2	80.4	53	60.6	1	2	338	0.00	29.934 
13:35	79.4	79.4	80.6	54	61.3	0	2	338	0.00	29.934 
13:40	79.4	79.4	80.5	52	60.2	0	1	338	0.00	29.934 
13:45	79.4	79.4	80.2	49	58.5	0	2	338	0.00	29.929 
13:50	79.6	79.6	80.2	47	57.6	0	2	338	0.00	29.929 
13:55	79.8	79.8	80.7	51	60.0	0	2	338	0.00	29.929 
14:00	79.9	79.9	81.3	56	62.8	0	2	338	0.00	29.919 
14:05	80.1	80.1	80.9	50	59.8	1	3	338	0.00	29.919 
14:10	80.7	80.7	81.4	50	60.3	0	2	0	0.00	29.919 
14:15	81.1	81.1	81.8	50	60.7	0	3	135	0.00	29.916 
14:20	81.1	81.1	81.7	49	60.1	0	1	135	0.00	29.916 
14:25	80.9	80.9	81.4	48	59.3	1	3	292	0.00	29.916 
14:30	80.5	80.5	81.4	51	60.7	0	2	292	0.00	29.908 
14:35	80.7	80.7	81.1	47	58.6	0	1	292	0.00	29.908 
14:40	80.7	80.7	81.7	52	61.4	0	1	292	0.00	29.908 
14:45	80.7	80.7	81.2	48	59.2	0	1	292	0.00	29.904 
14:50	80.9	80.9	81.5	49	59.9	0	2	292	0.00	29.904 
14:55	81.1	81.1	82.0	51	61.2	1	4	45	0.00	29.904 
15:00	81.1	81.1	81.3	45	57.7	0	2	112	0.00	29.899 
15:05	81.2	81.2	81.8	49	60.2	1	3	135	0.00	29.899 
15:10	81.1	81.1	81.4	46	58.3	1	3	135	0.00	29.899 
15:15	81.2	81.2	81.7	48	59.6	0	1	225	0.00	29.893 
15:20	81.6	81.6	81.7	45	58.2	1	3	112	0.00	29.893 
15:25	82.2	82.2	82.7	48	60.5	0	2	112	0.00	29.893 
15:30	82.2	82.2	82.4	46	59.3	0	2	292	0.00	29.888 
15:35	82.4	82.4	82.3	44	58.3	1	3	292	0.00	29.888 
15:40	82.4	82.4	82.5	45	58.9	0	2	270	0.00	29.888 
15:45	82.2	82.2	82.3	45	58.7	0	1	270	0.00	29.886 
15:50	81.6	81.6	81.7	45	58.2	0	2	0	0.00	29.886 
15:55	81.6	81.6	81.8	46	58.8	1	3	22	0.00	29.886 
16:00	81.8	81.8	82.3	48	60.2	1	3	22	0.00	29.882 
16:05	82.0	82.0	82.5	48	60.3	1	3	112	0.00	29.882 
16:10	82.2	82.2	82.7	48	60.5	0	1	112	0.00	29.882 
16:15	82.4	82.4	82.9	48	60.7	1	3	112	0.00	29.876 
16:20	82.6	82.6	83.0	47	60.3	1	3	112	0.00	29.876 
16:25	83.0	83.0	83.5	48	61.3	0	1	90	0.00	29.876 
16:30	83.2	83.2	83.6	47	60.8	0	2	90	0.00	29.869 
16:35	83.2	83.2	83.6	47	60.8	0	2	90	0.00	29.869 
16:40	83.6	83.6	84.4	49	62.4	1	3	90	0.00	29.869 
16:45	83.8	83.8	84.1	46	60.8	0	2	90	0.00	29.869 
16:50	83.6	83.6	83.9	46	60.6	1	3	158	0.00	29.869 
16:55	83.2	83.2	83.3	45	59.6	1	4	270	0.00	29.869 
17:00	83.4	83.4	84.6	51	63.3	0	1	270	0.00	29.868 
17:05	84.0	84.0	84.3	46	61.0	0	1	270	0.00	29.868 
17:10	84.3	84.3	84.1	43	59.3	0	2	270	0.00	29.868 
17:15	84.0	84.0	84.3	46	61.0	1	2	270	0.00	29.870 
17:20	83.4	83.4	83.5	45	59.8	0	1	270	0.00	29.870 
17:25	83.0	83.0	83.5	48	61.3	0	3	112	0.00	29.870 
17:30	83.2	83.2	83.1	44	59.0	1	2	112	0.00	29.867 
17:35	82.8	82.8	82.7	44	58.6	0	2	158	0.00	29.867 
17:40	82.6	82.6	82.5	44	58.4	0	2	180	0.00	29.867 
17:45	82.4	82.4	82.5	45	58.9	0	3	180	0.00	29.867 
17:50	82.6	82.6	83.0	47	60.3	0	2	158	0.00	29.867 
17:55	82.4	82.4	82.6	46	59.5	0	2	158	0.00	29.867 
18:00	82.0	82.0	82.2	46	59.1	0	2	158	0.00	29.863 
18:05	81.6	81.6	82.1	48	60.0	0	3	158	0.00	29.863 
18:10	81.6	81.6	82.3	50	61.1	0	1	90	0.00	29.863 
18:15	81.1	81.1	81.5	47	58.9	1	3	270	0.00	29.864 
18:20	80.5	80.5	81.3	50	60.1	0	2	270	0.00	29.864 
18:25	80.1	80.1	80.9	50	59.8	0	1	270	0.00	29.864 
18:30	80.1	80.1	80.9	50	59.8	0	2	270	0.00	29.860 
18:35	80.1	80.1	80.9	50	59.8	1	2	270	0.00	29.860 
18:40	79.9	79.9	80.9	52	60.7	0	2	292	0.00	29.860 
18:45	79.8	79.8	80.7	51	60.0	0	1	292	0.00	29.864 
18:50	79.6	79.6	80.6	52	60.4	0	0	---	0.00	29.864 
18:55	79.6	79.6	80.7	53	60.9	0	2	292	0.00	29.864 
19:00	79.6	79.6	80.6	52	60.4	0	0	---	0.00	29.856 
19:05	79.6	79.6	80.6	52	60.4	0	2	292	0.00	29.856 
19:10	79.6	79.6	80.6	52	60.4	0	3	292	0.00	29.856 
19:15	79.6	79.6	80.6	52	60.4	0	1	292	0.00	29.852 
19:20	79.8	79.8	80.8	52	60.6	0	1	292	0.00	29.852 
19:25	79.8	79.8	80.8	52	60.6	0	3	45	0.00	29.852 
19:30	79.8	79.8	80.9	53	61.1	0	1	45	0.00	29.842 
19:35	79.6	79.6	80.7	53	60.9	0	1	22	0.00	29.842 
19:40	79.4	79.4	80.5	52	60.2	0	3	315	0.00	29.842 
19:45	79.4	79.4	80.6	54	61.3	0	1	315	0.00	29.846 
19:50	79.2	79.2	80.4	54	61.1	0	2	315	0.00	29.846 
19:55	79.2	79.2	80.5	55	61.6	0	1	315	0.00	29.846 
20:00	79.0	79.0	80.4	56	61.9	0	0	---	0.00	29.849 
20:05	78.8	78.8	80.1	54	60.7	0	2	315	0.00	29.849 
20:10	78.6	78.6	80.0	56	61.6	0	0	---	0.00	29.849 
20:15	78.3	78.3	79.8	56	61.3	0	1	315	0.00	29.851 
20:20	78.1	78.1	79.6	57	61.6	0	0	---	0.00	29.851 
20:25	77.9	77.9	79.4	56	60.9	0	0	---	0.00	29.851 
20:30	77.7	77.7	79.3	56	60.7	0	2	0	0.00	29.853 
20:35	77.4	77.4	79.1	58	61.4	0	0	---	0.00	29.853 
20:40	77.2	77.2	78.9	58	61.3	0	0	---	0.00	29.853 
20:45	76.8	76.8	78.6	58	60.9	0	0	---	0.00	29.851 
20:50	76.5	76.5	78.4	59	61.1	0	0	---	0.00	29.851 
20:55	76.3	76.3	78.2	60	61.4	0	0	---	0.00	29.851 
21:00	76.0	76.0	78.0	61	61.6	0	0	---	0.00	29.843 
21:05	75.6	75.6	77.7	61	61.2	0	0	---	0.00	29.843 
21:10	75.4	75.4	77.6	61	61.0	0	0	---	0.00	29.843 
21:15	75.3	75.3	77.5	62	61.4	0	0	---	0.00	29.828 
21:20	75.1	75.1	77.2	64	62.1	0	0	---	0.00	29.828 
21:25	74.7	74.7	74.7	65	62.1	0	0	---	0.00	29.828 
21:30	74.4	74.4	74.4	65	61.8	0	0	---	0.00	29.820 
21:35	74.0	74.0	74.0	66	61.9	0	0	---	0.00	29.820 
21:40	73.7	73.7	73.7	67	62.0	0	0	---	0.00	29.820 
21:45	73.3	73.3	73.3	68	62.1	0	0	---	0.00	29.819 
21:50	72.8	72.8	72.8	69	62.0	0	0	---	0.00	29.819 
21:55	72.5	72.5	72.5	69	61.7	0	0	---	0.00	29.819 
22:00	72.1	72.1	72.1	72	62.6	0	0	---	0.00	29.819 
22:05	71.8	71.8	71.8	72	62.3	0	0	---	0.00	29.819 
22:10	71.5	71.5	71.5	73	62.4	0	0	---	0.00	29.819 
22:15	71.1	71.1	71.1	74	62.4	0	0	---	0.00	29.820 
22:20	70.9	70.9	70.9	75	62.6	0	0	---	0.00	29.820 
22:25	70.8	70.8	70.8	75	62.5	0	0	---	0.00	29.820 
22:30	70.4	70.4	70.4	77	62.8	0	0	---	0.00	29.817 
22:35	70.3	70.3	70.3	77	62.7	0	0	---	0.00	29.817 
22:40	69.9	69.9	69.9	78	62.7	0	0	---	0.00	29.817 
22:45	69.8	69.8	69.8	79	63.0	0	0	---	0.00	29.824 
22:50	69.6	69.6	69.6	80	63.1	0	0	---	0.00	29.824 
22:55	69.4	69.4	69.4	80	63.0	0	0	---	0.00	29.824 
23:00	69.3	69.3	69.3	80	62.9	0	0	---	0.00	29.829 
23:05	69.1	69.1	69.1	81	63.0	0	0	---	0.00	29.829 
23:10	68.9	68.9	68.9	81	62.8	0	0	---	0.00	29.829 
23:15	68.8	68.8	68.8	81	62.7	0	0	---	0.00	29.828 
23:20	68.6	68.6	68.6	82	62.9	0	0	---	0.00	29.828 
23:25	68.4	68.4	68.4	82	62.7	0	0	---	0.00	29.828 
23:30	68.3	68.3	68.3	83	62.9	0	0	---	0.00	29.834 
23:35	68.1	68.1	68.1	83	62.7	0	0	---	0.00	29.834 
23:40	67.9	67.9	67.9	83	62.5	0	0	---	0.00	29.834 
23:45	67.9	67.9	67.9	84	62.9	0	0	---	0.00	29.828 
23:50	67.8	67.8	67.8	84	62.8	0	0	---	0.00	29.828 
23:55	67.6	67.6	67.6	85	62.9	0	0	---	0.00	29.828 

CoCoRaHS
IN-AL-39
A2 Web Hosting
Creative Commons License
GoDaddy
search engine by freefind advanced

loaded 2018-11-15 05:10:30 • last modified 2010-11-18 10:43:29
Privacy PolicyDisclaimer
• wx.awcolley.com is powered by PmWiki v.2002016 •
• all content (unless otherwise noted) © 2018 A W Colley